Time;durP1;ratioP1;P1;durP2;ratioP2;P2;SDS_P1;SDS_P2;PMS_P1;PMS_P2;Temp;Humidity;BMP_temperature;BMP_pressure;BME280_temperature;BME280_humidity;BME280_pressure;Samples;Min_cycle;Max_cycle;Signal;HPM_P1;HPM_P2
2022/09/24 00:00:36;;;;;;;;;;;12.90;91.90;;;;;;5100689;28;19908;-57
2022/09/24 00:03:02;;;;;;;;;;;12.90;91.90;;;;;;5100517;28;20003;-57
2022/09/24 00:05:28;;;;;;;;;;;12.90;92.30;;;;;;5100023;28;19959;-57
2022/09/24 00:07:53;;;;;;;;;;;12.90;92.10;;;;;;5100568;28;19916;-56
2022/09/24 00:10:20;;;;;;;;;;;12.90;92.20;;;;;;5100086;28;19908;-56
2022/09/24 00:12:46;;;;;;;;;;;12.90;92.20;;;;;;5100235;28;19931;-56
2022/09/24 00:15:12;;;;;;;;;;;12.90;92.20;;;;;;5100520;28;20493;-56
2022/09/24 00:17:38;;;;;;;;;;;12.90;92.60;;;;;;5100441;28;19909;-55
2022/09/24 00:20:03;;;;;;;;;;;12.90;92.10;;;;;;5100122;28;20477;-57
2022/09/24 00:22:31;;;;;;;;;;;12.90;92.50;;;;;;5099667;28;19931;-57
2022/09/24 00:27:41;;;;;;;;;;;12.90;92.40;;;;;;5099559;28;20386;-57
2022/09/24 00:30:06;;;;;;;;;;;12.90;92.50;;;;;;5099884;28;19908;-57
2022/09/24 00:32:32;;;;;;;;;;;12.90;92.30;;;;;;5099820;28;20359;-57
2022/09/24 00:34:58;;;;;;;;;;;12.90;92.80;;;;;;5099743;28;19908;-57
2022/09/24 00:37:24;;;;;;;;;;;12.90;92.60;;;;;;5099468;28;19908;-56
2022/09/24 00:39:50;;;;;;;;;;;12.90;92.90;;;;;;5099576;28;19958;-56
2022/09/24 00:42:17;;;;;;;;;;;12.90;92.60;;;;;;5099522;28;20419;-57
2022/09/24 00:44:43;;;;;;;;;;;12.90;92.80;;;;;;5099641;28;19915;-56
2022/09/24 00:47:15;;;;;;;;;;;13.00;92.80;;;;;;5099291;28;19908;-57
2022/09/24 00:49:41;;;;;;;;;;;13.00;92.90;;;;;;5099266;28;19912;-57
2022/09/24 00:52:07;;;;;;;;;;;13.00;92.70;;;;;;5099325;28;19958;-57
2022/09/24 00:54:33;;;;;;;;;;;13.00;92.80;;;;;;5098465;28;19908;-57
2022/09/24 00:56:58;;;;;;;;;;;13.00;92.80;;;;;;5099420;28;19915;-57
2022/09/24 00:59:25;;;;;;;;;;;13.10;92.50;;;;;;5099167;28;19964;-57
2022/09/24 01:01:52;;;;;;;;;;;13.10;92.80;;;;;;5099048;28;19908;-57
2022/09/24 01:04:21;;;;;;;;;;;13.20;92.60;;;;;;5098878;28;19927;-57
2022/09/24 01:06:47;;;;;;;;;;;13.20;92.70;;;;;;5099217;28;19908;-57
2022/09/24 01:09:13;;;;;;;;;;;13.20;92.60;;;;;;5098665;28;19919;-57
2022/09/24 01:11:57;;;;;;;;;;;13.30;92.50;;;;;;5099109;28;19908;-57
2022/09/24 01:14:32;;;;;;;;;;;13.30;92.60;;;;;;5098677;28;19945;-57
2022/09/24 01:17:20;;;;;;;;;;;13.30;92.30;;;;;;5098475;28;19958;-57
2022/09/24 01:20:10;;;;;;;;;;;13.30;92.40;;;;;;5085293;28;19908;-57
2022/09/24 01:22:45;;;;;;;;;;;13.30;92.30;;;;;;5098771;28;20252;-57
2022/09/24 01:25:23;;;;;;;;;;;13.30;92.30;;;;;;5098840;28;19915;-57
2022/09/24 01:27:55;;;;;;;;;;;13.30;92.10;;;;;;5098902;28;19967;-57
2022/09/24 01:30:21;;;;;;;;;;;13.30;92.50;;;;;;5098468;28;19930;-57
2022/09/24 01:32:52;;;;;;;;;;;13.30;92.60;;;;;;5098570;28;19912;-57
2022/09/24 01:35:23;;;;;;;;;;;13.30;92.30;;;;;;5098412;28;19930;-57
2022/09/24 01:37:54;;;;;;;;;;;13.20;92.60;;;;;;5098462;28;19939;-57
2022/09/24 01:40:22;;;;;;;;;;;13.30;92.60;;;;;;5098423;28;19908;-56
2022/09/24 01:42:49;;;;;;;;;;;13.30;92.00;;;;;;5098847;28;19908;-57
2022/09/24 01:45:16;;;;;;;;;;;13.30;92.40;;;;;;5098469;28;20427;-56
2022/09/24 01:47:42;;;;;;;;;;;13.30;92.50;;;;;;5098584;28;19915;-57
2022/09/24 01:50:09;;;;;;;;;;;13.30;92.50;;;;;;5098041;28;20279;-56
2022/09/24 01:52:55;;;;;;;;;;;13.40;92.90;;;;;;5098420;28;19931;-57
2022/09/24 01:55:24;;;;;;;;;;;13.40;92.70;;;;;;5097646;28;19969;-55
2022/09/24 01:57:56;;;;;;;;;;;13.40;92.60;;;;;;5097934;28;19908;-57
2022/09/24 02:00:21;;;;;;;;;;;13.40;92.60;;;;;;5098146;28;19915;-57
2022/09/24 02:02:54;;;;;;;;;;;13.40;92.00;;;;;;5098014;28;19909;-57
2022/09/24 02:05:23;;;;;;;;;;;13.40;92.20;;;;;;5097795;28;19920;-56
2022/09/24 02:07:53;;;;;;;;;;;13.50;92.80;;;;;;5097953;28;19908;-57
2022/09/24 02:10:19;;;;;;;;;;;13.50;92.90;;;;;;5098069;28;19908;-56
2022/09/24 02:12:46;;;;;;;;;;;13.50;92.60;;;;;;5098041;28;19935;-57
2022/09/24 02:15:20;;;;;;;;;;;13.50;92.60;;;;;;5097796;28;19908;-57
2022/09/24 02:17:48;;;;;;;;;;;13.50;92.60;;;;;;5098241;28;19908;-56
2022/09/24 02:20:15;;;;;;;;;;;13.50;92.30;;;;;;5098154;28;19908;-57
2022/09/24 02:22:42;;;;;;;;;;;13.50;92.30;;;;;;5098262;28;20503;-57
2022/09/24 02:25:09;;;;;;;;;;;13.50;92.50;;;;;;5098091;28;19908;-57
2022/09/24 02:27:35;;;;;;;;;;;13.50;92.50;;;;;;5098065;28;19957;-57
2022/09/24 02:30:01;;;;;;;;;;;13.40;92.50;;;;;;5098037;28;19919;-57
2022/09/24 02:32:29;;;;;;;;;;;13.40;92.10;;;;;;5097818;28;20676;-56
2022/09/24 02:34:58;;;;;;;;;;;13.40;92.10;;;;;;5097776;28;19908;-57
2022/09/24 02:37:24;;;;;;;;;;;13.30;92.60;;;;;;5097888;28;19908;-57
2022/09/24 02:39:50;;;;;;;;;;;13.30;92.30;;;;;;5097960;28;19931;-57
2022/09/24 02:42:16;;;;;;;;;;;13.30;92.30;;;;;;5097524;28;20381;-57
2022/09/24 02:44:42;;;;;;;;;;;13.30;92.70;;;;;;5098152;28;19908;-57
2022/09/24 02:47:08;;;;;;;;;;;13.30;92.60;;;;;;5097670;28;20364;-57
2022/09/24 02:49:33;;;;;;;;;;;13.30;92.70;;;;;;5097757;28;19919;-57
2022/09/24 02:51:59;;;;;;;;;;;13.30;92.60;;;;;;5097897;28;20272;-56
2022/09/24 02:54:25;;;;;;;;;;;13.30;92.90;;;;;;5097744;28;19912;-57
2022/09/24 02:56:51;;;;;;;;;;;13.30;92.70;;;;;;5097946;28;19908;-56
2022/09/24 02:59:18;;;;;;;;;;;13.30;92.70;;;;;;5097813;28;19954;-57
2022/09/24 03:01:44;;;;;;;;;;;13.30;92.40;;;;;;5097378;28;20012;-57
2022/09/24 03:04:10;;;;;;;;;;;13.30;92.50;;;;;;5097459;28;19966;-57
2022/09/24 03:06:35;;;;;;;;;;;13.30;92.70;;;;;;5097289;28;19912;-57
2022/09/24 03:09:02;;;;;;;;;;;13.20;92.30;;;;;;5097616;28;19912;-56
2022/09/24 03:11:28;;;;;;;;;;;13.30;92.70;;;;;;5097515;28;19908;-57
2022/09/24 03:13:54;;;;;;;;;;;13.20;92.80;;;;;;5097416;28;21111;-56
2022/09/24 03:16:20;;;;;;;;;;;13.20;92.50;;;;;;5097430;28;19908;-57
2022/09/24 03:18:46;;;;;;;;;;;13.20;92.90;;;;;;5099224;28;19915;-56
2022/09/24 03:21:13;;;;;;;;;;;13.20;93.10;;;;;;5101278;28;20255;-57
2022/09/24 03:23:39;;;;;;;;;;;13.20;93.30;;;;;;5101280;28;19912;-57
2022/09/24 03:26:04;;;;;;;;;;;13.20;93.30;;;;;;5101168;28;19950;-56
2022/09/24 03:28:30;;;;;;;;;;;13.10;93.50;;;;;;5101127;28;20389;-57
2022/09/24 03:30:59;;;;;;;;;;;13.20;93.20;;;;;;5100832;28;19908;-57
2022/09/24 03:33:26;;;;;;;;;;;13.10;92.90;;;;;;5101085;28;19919;-57
2022/09/24 03:35:55;;;;;;;;;;;13.10;93.20;;;;;;5100867;28;19915;-56
2022/09/24 03:38:21;;;;;;;;;;;13.10;93.20;;;;;;5100579;28;19916;-57
2022/09/24 03:40:46;;;;;;;;;;;13.10;93.40;;;;;;5100668;28;19912;-56
2022/09/24 03:43:12;;;;;;;;;;;13.10;93.20;;;;;;5100868;28;20359;-56
2022/09/24 03:45:37;;;;;;;;;;;13.10;93.50;;;;;;5100602;28;20298;-57
2022/09/24 03:48:04;;;;;;;;;;;13.10;93.00;;;;;;5100223;28;19951;-57
2022/09/24 03:50:30;;;;;;;;;;;13.00;93.20;;;;;;5101223;28;19917;-57
2022/09/24 03:52:56;;;;;;;;;;;13.00;93.10;;;;;;5100696;28;19946;-57
2022/09/24 03:55:21;;;;;;;;;;;13.00;93.50;;;;;;5100599;28;20001;-57
2022/09/24 03:57:47;;;;;;;;;;;13.00;93.40;;;;;;5100720;28;20344;-57
2022/09/24 04:00:13;;;;;;;;;;;13.00;93.00;;;;;;5100320;28;19915;-57
2022/09/24 04:02:39;;;;;;;;;;;12.90;92.90;;;;;;5099482;28;19912;-56
2022/09/24 04:05:05;;;;;;;;;;;12.90;93.10;;;;;;5099889;28;19924;-56
2022/09/24 04:07:30;;;;;;;;;;;12.90;93.20;;;;;;5100684;28;19915;-56
2022/09/24 04:09:56;;;;;;;;;;;12.90;93.10;;;;;;5100169;28;20379;-56
2022/09/24 04:12:22;;;;;;;;;;;12.90;93.30;;;;;;5100304;28;19908;-56
2022/09/24 04:14:48;;;;;;;;;;;12.80;93.30;;;;;;5100042;28;19908;-56
2022/09/24 04:17:15;;;;;;;;;;;12.80;93.40;;;;;;5100012;28;20066;-57
2022/09/24 04:19:41;;;;;;;;;;;12.90;93.40;;;;;;5100192;28;20317;-57
2022/09/24 04:22:06;;;;;;;;;;;12.80;93.50;;;;;;5099904;28;19938;-57
2022/09/24 04:24:32;;;;;;;;;;;12.80;93.50;;;;;;5100053;28;19908;-56
2022/09/24 04:26:57;;;;;;;;;;;12.80;93.30;;;;;;5097897;28;19912;-57
2022/09/24 04:29:23;;;;;;;;;;;12.80;93.40;;;;;;5090608;28;19919;-56
2022/09/24 04:31:49;;;;;;;;;;;12.80;93.30;;;;;;5088340;28;19919;-56
2022/09/24 04:34:14;;;;;;;;;;;12.90;93.30;;;;;;5084584;28;20287;-57
2022/09/24 04:36:40;;;;;;;;;;;12.80;93.10;;;;;;5079356;28;19915;-57
2022/09/24 04:39:05;;;;;;;;;;;12.80;92.90;;;;;;5079544;28;20002;-57
2022/09/24 04:41:33;;;;;;;;;;;12.80;93.00;;;;;;5079296;28;19909;-57
2022/09/24 04:43:59;;;;;;;;;;;12.80;92.70;;;;;;5079311;28;19912;-56
2022/09/24 04:46:25;;;;;;;;;;;12.80;92.80;;;;;;5079385;28;20387;-56
2022/09/24 04:48:52;;;;;;;;;;;12.80;92.80;;;;;;5079315;28;19913;-56
2022/09/24 04:51:20;;;;;;;;;;;12.80;92.80;;;;;;5079072;28;19908;-56
2022/09/24 04:53:49;;;;;;;;;;;12.70;92.70;;;;;;5089138;28;19923;-57
2022/09/24 04:56:15;;;;;;;;;;;12.70;92.60;;;;;;5087550;28;19909;-57
2022/09/24 04:58:40;;;;;;;;;;;12.70;92.50;;;;;;5088446;28;19915;-56
2022/09/24 05:01:06;;;;;;;;;;;12.60;92.40;;;;;;5089426;28;19908;-57
2022/09/24 05:03:32;;;;;;;;;;;12.60;92.30;;;;;;5089731;28;20470;-57
2022/09/24 05:05:57;;;;;;;;;;;12.60;92.20;;;;;;5088588;28;20402;-56
2022/09/24 05:08:23;;;;;;;;;;;12.60;92.30;;;;;;5089515;28;19919;-56
2022/09/24 05:10:49;;;;;;;;;;;12.50;92.30;;;;;;5096229;28;19912;-56
2022/09/24 05:13:15;;;;;;;;;;;12.50;92.50;;;;;;5098697;28;19912;-57
2022/09/24 05:15:40;;;;;;;;;;;12.50;92.20;;;;;;5098956;28;19904;-57
2022/09/24 05:18:06;;;;;;;;;;;12.50;92.70;;;;;;5098564;28;19909;-57
2022/09/24 05:20:31;;;;;;;;;;;12.40;92.30;;;;;;5098606;28;19915;-56
2022/09/24 05:22:57;;;;;;;;;;;12.40;92.40;;;;;;5098894;28;19909;-56
2022/09/24 05:25:23;;;;;;;;;;;12.40;92.60;;;;;;5098761;28;19908;-57
2022/09/24 05:27:52;;;;;;;;;;;12.40;92.70;;;;;;5098551;28;20279;-57
2022/09/24 05:30:19;;;;;;;;;;;12.40;92.70;;;;;;5098841;28;19935;-57
2022/09/24 05:32:48;;;;;;;;;;;12.40;92.50;;;;;;5098378;28;19955;-57
2022/09/24 05:35:14;;;;;;;;;;;12.40;92.60;;;;;;5098719;28;19915;-56
2022/09/24 05:37:39;;;;;;;;;;;12.30;92.70;;;;;;5098529;28;19908;-56
2022/09/24 05:42:50;;;;;;;;;;;12.30;93.00;;;;;;5098439;28;19915;-57
2022/09/24 05:45:16;;;;;;;;;;;12.30;92.40;;;;;;5098642;28;19908;-57
2022/09/24 05:47:45;;;;;;;;;;;12.30;92.80;;;;;;5098313;28;19915;-57
2022/09/24 05:50:11;;;;;;;;;;;12.40;93.10;;;;;;5098240;28;20367;-56
2022/09/24 05:52:37;;;;;;;;;;;12.40;93.00;;;;;;5098580;28;19908;-56
2022/09/24 05:55:03;;;;;;;;;;;12.40;93.10;;;;;;5098486;28;19953;-56
2022/09/24 05:57:29;;;;;;;;;;;12.40;92.90;;;;;;5098131;28;19909;-57
2022/09/24 05:59:54;;;;;;;;;;;12.30;93.10;;;;;;5098376;28;19919;-56
2022/09/24 06:02:20;;;;;;;;;;;12.30;92.60;;;;;;5098222;28;19908;-57
2022/09/24 06:04:45;;;;;;;;;;;12.30;93.20;;;;;;5098128;28;20528;-56
2022/09/24 06:07:11;;;;;;;;;;;12.30;93.20;;;;;;5098078;28;19908;-56
2022/09/24 06:09:37;;;;;;;;;;;12.30;93.00;;;;;;5098355;28;19912;-56
2022/09/24 06:12:02;;;;;;;;;;;12.30;92.80;;;;;;5098286;28;19908;-57
2022/09/24 06:14:28;;;;;;;;;;;12.20;92.90;;;;;;5098219;28;19908;-56
2022/09/24 06:16:53;;;;;;;;;;;12.20;92.80;;;;;;5098486;28;19908;-56
2022/09/24 06:19:19;;;;;;;;;;;12.20;92.60;;;;;;5098163;28;19908;-57
2022/09/24 06:21:44;;;;;;;;;;;12.30;92.60;;;;;;5098220;28;19912;-56
2022/09/24 06:24:10;;;;;;;;;;;12.30;93.20;;;;;;5097903;28;19909;-56
2022/09/24 06:26:36;;;;;;;;;;;12.30;93.00;;;;;;5097821;28;19918;-57
2022/09/24 06:29:02;;;;;;;;;;;12.30;93.00;;;;;;5098004;28;19912;-57
2022/09/24 06:31:28;;;;;;;;;;;12.30;93.10;;;;;;5098064;28;20256;-57
2022/09/24 06:33:53;;;;;;;;;;;12.30;93.30;;;;;;5098303;28;19908;-56
2022/09/24 06:36:19;;;;;;;;;;;12.30;93.00;;;;;;5097794;28;19934;-55
2022/09/24 06:38:49;;;;;;;;;;;12.30;92.90;;;;;;5097154;28;19965;-57
2022/09/24 06:41:14;;;;;;;;;;;12.30;93.10;;;;;;5077781;28;20314;-57
2022/09/24 06:43:40;;;;;;;;;;;12.40;93.20;;;;;;5077614;28;19930;-57
2022/09/24 06:46:05;;;;;;;;;;;12.40;93.30;;;;;;5077456;28;20364;-57
2022/09/24 06:48:31;;;;;;;;;;;12.50;92.90;;;;;;5077490;28;19919;-56
2022/09/24 06:50:57;;;;;;;;;;;12.50;93.10;;;;;;5078003;28;19948;-57
2022/09/24 06:53:23;;;;;;;;;;;12.50;92.70;;;;;;5078111;28;19908;-57
2022/09/24 06:55:48;;;;;;;;;;;12.50;93.00;;;;;;5081221;28;19954;-56
2022/09/24 06:58:15;;;;;;;;;;;12.50;92.50;;;;;;5081287;28;20371;-57
2022/09/24 07:00:41;;;;;;;;;;;12.50;93.00;;;;;;5081235;28;19966;-57
2022/09/24 07:03:15;;;;;;;;;;;12.50;93.20;;;;;;5081045;28;20380;-57
2022/09/24 07:05:40;;;;;;;;;;;12.50;93.30;;;;;;5081160;28;20261;-57
2022/09/24 07:08:06;;;;;;;;;;;12.50;93.20;;;;;;5081097;28;19930;-57
2022/09/24 07:10:31;;;;;;;;;;;12.50;92.80;;;;;;5080668;28;20382;-56
2022/09/24 07:12:57;;;;;;;;;;;12.50;93.10;;;;;;5080796;28;19910;-56
2022/09/24 07:15:23;;;;;;;;;;;12.50;92.80;;;;;;5080643;28;20011;-56
2022/09/24 07:17:53;;;;;;;;;;;12.50;93.00;;;;;;5081127;28;19915;-56
2022/09/24 07:20:18;;;;;;;;;;;12.50;92.80;;;;;;5080713;28;19909;-56
2022/09/24 07:22:44;;;;;;;;;;;12.50;93.20;;;;;;5080582;28;20291;-56
2022/09/24 07:25:10;;;;;;;;;;;12.60;93.60;;;;;;5080606;28;19915;-56
2022/09/24 07:27:36;;;;;;;;;;;12.60;93.30;;;;;;5080474;28;19908;-57
2022/09/24 07:30:04;;;;;;;;;;;12.60;93.60;;;;;;5080657;28;19912;-56
2022/09/24 07:32:30;;;;;;;;;;;12.70;93.40;;;;;;5080579;28;19909;-57
2022/09/24 07:34:56;;;;;;;;;;;12.70;93.20;;;;;;5080322;28;20463;-57
2022/09/24 07:37:21;;;;;;;;;;;12.80;93.60;;;;;;5080335;28;19916;-57
2022/09/24 07:39:47;;;;;;;;;;;12.80;93.60;;;;;;5080587;28;19955;-56
2022/09/24 07:42:12;;;;;;;;;;;12.90;93.50;;;;;;5080549;28;20272;-56
2022/09/24 07:44:38;;;;;;;;;;;12.90;93.30;;;;;;5080134;28;19916;-57
2022/09/24 07:47:04;;;;;;;;;;;12.90;93.60;;;;;;5080338;28;19969;-56
2022/09/24 07:49:31;;;;;;;;;;;13.00;93.30;;;;;;5080268;28;20738;-55
2022/09/24 07:51:57;;;;;;;;;;;13.00;93.80;;;;;;5080362;28;19909;-57
2022/09/24 07:54:23;;;;;;;;;;;13.10;93.70;;;;;;5080353;28;19930;-56
2022/09/24 07:56:49;;;;;;;;;;;13.10;93.70;;;;;;5079760;28;19913;-56
2022/09/24 07:59:14;;;;;;;;;;;13.20;93.30;;;;;;5080109;28;19992;-57
2022/09/24 08:01:40;;;;;;;;;;;13.30;94.00;;;;;;5080289;28;20370;-56
2022/09/24 08:04:06;;;;;;;;;;;13.40;94.00;;;;;;5079370;28;19923;-57
2022/09/24 08:06:35;;;;;;;;;;;13.40;93.50;;;;;;5083059;28;19912;-56
2022/09/24 08:09:01;;;;;;;;;;;13.60;94.10;;;;;;5089628;28;19939;-56
2022/09/24 08:11:27;;;;;;;;;;;13.70;94.30;;;;;;5090058;28;20372;-56
2022/09/24 08:13:54;;;;;;;;;;;13.90;93.90;;;;;;5088249;28;19908;-57
2022/09/24 08:16:22;;;;;;;;;;;14.00;94.20;;;;;;5089415;28;19916;-57
2022/09/24 08:18:48;;;;;;;;;;;14.10;94.10;;;;;;5088034;28;19992;-55
2022/09/24 08:21:14;;;;;;;;;;;14.20;93.80;;;;;;5086639;28;19955;-57
2022/09/24 08:23:40;;;;;;;;;;;14.40;93.90;;;;;;5088986;28;19908;-57
2022/09/24 08:26:06;;;;;;;;;;;14.50;93.50;;;;;;5078399;28;20004;-57
2022/09/24 08:28:32;;;;;;;;;;;14.70;93.40;;;;;;5079687;28;19939;-57
2022/09/24 08:30:59;;;;;;;;;;;14.80;93.50;;;;;;5079729;28;19985;-57
2022/09/24 08:33:25;;;;;;;;;;;14.90;93.20;;;;;;5079652;28;19909;-57
2022/09/24 08:35:51;;;;;;;;;;;15.10;93.00;;;;;;5079945;28;19948;-56
2022/09/24 08:38:19;;;;;;;;;;;15.20;92.90;;;;;;5079309;28;19908;-57
2022/09/24 08:40:50;;;;;;;;;;;15.40;92.80;;;;;;5079368;28;19943;-57
2022/09/24 08:43:16;;;;;;;;;;;15.70;92.80;;;;;;5079717;28;19908;-57
2022/09/24 08:48:45;;;;;;;;;;;16.00;91.60;;;;;;5056259;28;19913;-57
2022/09/24 08:51:12;;;;;;;;;;;16.30;91.70;;;;;;5079308;28;19909;-57
2022/09/24 08:53:44;;;;;;;;;;;16.60;90.60;;;;;;5079403;28;19915;-56
2022/09/24 08:56:10;;;;;;;;;;;17.00;88.90;;;;;;5079044;28;20401;-57
2022/09/24 08:58:51;;;;;;;;;;;17.30;88.80;;;;;;5078947;28;19958;-56
2022/09/24 09:01:29;;;;;;;;;;;18.00;92.30;;;;;;5078903;28;19916;-57
2022/09/24 09:04:02;;;;;;;;;;;18.60;90.80;;;;;;5078708;28;19935;-57
2022/09/24 09:06:37;;;;;;;;;;;19.40;83.40;;;;;;5078919;28;20294;-57
2022/09/24 09:09:08;;;;;;;;;;;19.70;80.50;;;;;;5078702;28;19913;-57
2022/09/24 09:11:36;;;;;;;;;;;20.10;83.30;;;;;;5078094;28;20198;-57
2022/09/24 09:14:11;;;;;;;;;;;21.00;77.60;;;;;;5078696;28;20291;-57
2022/09/24 09:16:43;;;;;;;;;;;21.90;75.60;;;;;;5077907;28;19912;-57
2022/09/24 09:19:11;;;;;;;;;;;22.30;70.40;;;;;;5078575;28;19909;-58
2022/09/24 09:21:40;;;;;;;;;;;22.20;76.00;;;;;;5078730;28;19908;-58
2022/09/24 09:24:14;;;;;;;;;;;22.70;70.10;;;;;;5078395;28;19912;-58
2022/09/24 09:26:40;;;;;;;;;;;22.80;66.60;;;;;;5078603;28;19909;-58
2022/09/24 09:29:08;;;;;;;;;;;23.10;67.50;;;;;;5078169;28;20299;-57
2022/09/24 09:31:43;;;;;;;;;;;23.50;68.50;;;;;;5078604;28;19908;-58
2022/09/24 09:34:18;;;;;;;;;;;23.70;62.70;;;;;;5078145;28;19940;-58
2022/09/24 09:37:06;;;;;;;;;;;23.80;72.90;;;;;;5077973;28;19962;-57
2022/09/24 09:39:36;;;;;;;;;;;24.00;65.30;;;;;;5077780;28;19910;-58
2022/09/24 09:42:08;;;;;;;;;;;25.20;69.60;;;;;;5078131;28;19912;-55
2022/09/24 09:44:41;;;;;;;;;;;25.80;60.70;;;;;;5078234;28;19999;-55
2022/09/24 09:47:34;;;;;;;;;;;25.30;63.00;;;;;;5078058;28;19958;-55
2022/09/24 09:50:04;;;;;;;;;;;24.70;59.20;;;;;;5077387;28;19931;-52
2022/09/24 09:52:34;;;;;;;;;;;24.40;58.20;;;;;;5077724;28;19915;-52
2022/09/24 09:55:00;;;;;;;;;;;23.70;60.10;;;;;;5077706;28;19916;-54
2022/09/24 09:57:26;;;;;;;;;;;22.50;61.70;;;;;;5077815;28;19908;-53
2022/09/24 09:59:53;;;;;;;;;;;22.20;63.80;;;;;;5077972;28;19909;-54
2022/09/24 10:02:22;;;;;;;;;;;23.10;63.20;;;;;;5077818;28;19909;-52
2022/09/24 10:04:50;;;;;;;;;;;23.40;63.70;;;;;;5077637;28;20001;-53
2022/09/24 10:07:16;;;;;;;;;;;22.90;65.20;;;;;;5077959;28;19927;-52
2022/09/24 10:09:42;;;;;;;;;;;22.50;59.40;;;;;;5077857;28;20466;-54
2022/09/24 10:12:20;;;;;;;;;;;22.00;63.80;;;;;;5077714;28;19912;-55
2022/09/24 10:15:15;;;;;;;;;;;21.70;63.70;;;;;;5077539;28;20493;-51
2022/09/24 10:17:42;;;;;;;;;;;22.00;65.50;;;;;;5060001;28;19909;-55
2022/09/24 10:20:13;;;;;;;;;;;22.90;65.30;;;;;;5078009;28;19908;-55
2022/09/24 10:22:40;;;;;;;;;;;23.30;61.10;;;;;;5077535;28;20448;-55
2022/09/24 10:25:16;;;;;;;;;;;23.40;65.00;;;;;;5077610;28;19912;-53
2022/09/24 10:27:41;;;;;;;;;;;23.00;60.80;;;;;;5080047;28;20256;-54
2022/09/24 10:30:32;;;;;;;;;;;23.00;64.70;;;;;;5081809;28;19912;-53
2022/09/24 10:32:59;;;;;;;;;;;22.60;58.80;;;;;;5081925;28;19915;-55
2022/09/24 10:35:25;;;;;;;;;;;23.00;67.00;;;;;;5081613;28;19909;-55
2022/09/24 10:38:00;;;;;;;;;;;23.20;61.80;;;;;;5081384;28;20434;-55
2022/09/24 10:40:29;;;;;;;;;;;23.20;61.30;;;;;;5081259;28;19958;-55
2022/09/24 10:42:56;;;;;;;;;;;23.30;59.40;;;;;;5081930;28;19915;-54
2022/09/24 10:45:26;;;;;;;;;;;23.50;60.00;;;;;;5081652;28;20312;-55
2022/09/24 10:47:53;;;;;;;;;;;23.70;61.10;;;;;;5081612;28;19909;-54
2022/09/24 10:50:19;;;;;;;;;;;24.50;60.20;;;;;;5090310;28;19912;-55
2022/09/24 10:52:44;;;;;;;;;;;24.80;60.10;;;;;;5101028;28;19912;-55
2022/09/24 10:55:10;;;;;;;;;;;24.10;51.10;;;;;;5101611;28;19908;-54
2022/09/24 10:57:38;;;;;;;;;;;23.40;54.00;;;;;;5101690;28;19926;-54
2022/09/24 11:00:10;;;;;;;;;;;23.60;51.40;;;;;;5101845;28;19961;-56
2022/09/24 11:02:54;;;;;;;;;;;24.00;61.80;;;;;;5101332;28;19916;-55
2022/09/24 11:05:20;;;;;;;;;;;24.10;50.50;;;;;;5101206;28;19969;-54
2022/09/24 11:07:46;;;;;;;;;;;24.70;54.30;;;;;;5101356;28;19916;-55
2022/09/24 11:10:35;;;;;;;;;;;24.70;49.10;;;;;;5101430;28;19913;-55
2022/09/24 11:13:06;;;;;;;;;;;25.80;55.80;;;;;;5101230;28;20376;-54
2022/09/24 11:16:08;;;;;;;;;;;24.80;46.20;;;;;;5101001;28;20256;-55
2022/09/24 11:18:46;;;;;;;;;;;24.00;48.60;;;;;;4999631;28;19910;-51
2022/09/24 11:21:14;;;;;;;;;;;23.70;49.80;;;;;;5088200;28;19908;-53
2022/09/24 11:23:45;;;;;;;;;;;24.00;49.60;;;;;;5101296;28;19909;-52
2022/09/24 11:26:33;;;;;;;;;;;24.90;57.10;;;;;;5101251;28;20007;-53
2022/09/24 11:29:09;;;;;;;;;;;25.80;48.30;;;;;;5087412;28;19912;-53
2022/09/24 11:32:04;;;;;;;;;;;26.60;53.80;;;;;;5101054;28;19916;-51
2022/09/24 11:34:34;;;;;;;;;;;26.60;45.00;;;;;;5064403;28;19908;-51
2022/09/24 11:37:05;;;;;;;;;;;25.50;45.10;;;;;;5100768;28;19976;-53
2022/09/24 11:39:41;;;;;;;;;;;25.50;44.20;;;;;;5099337;28;19995;-54
2022/09/24 11:42:20;;;;;;;;;;;25.70;44.60;;;;;;5100839;28;19908;-53
2022/09/24 11:45:05;;;;;;;;;;;26.20;45.20;;;;;;5101016;28;19973;-53
2022/09/24 11:47:43;;;;;;;;;;;27.10;46.50;;;;;;5100479;28;19908;-53
2022/09/24 11:50:25;;;;;;;;;;;27.70;47.40;;;;;;5100598;28;19916;-53
2022/09/24 11:53:11;;;;;;;;;;;28.40;43.80;;;;;;5100548;28;19915;-53
2022/09/24 11:55:50;;;;;;;;;;;28.80;43.20;;;;;;5099448;28;19908;-52
2022/09/24 11:58:22;;;;;;;;;;;27.80;44.50;;;;;;5100477;28;19965;-51
2022/09/24 12:00:52;;;;;;;;;;;28.50;43.60;;;;;;5100569;28;19909;-53
2022/09/24 12:03:22;;;;;;;;;;;27.80;41.50;;;;;;5100141;28;19923;-53
2022/09/24 12:06:01;;;;;;;;;;;27.70;43.40;;;;;;5099976;28;19928;-53
2022/09/24 12:08:44;;;;;;;;;;;28.20;50.80;;;;;;5100017;28;19912;-53
2022/09/24 12:11:21;;;;;;;;;;;28.80;39.30;;;;;;5100134;28;19970;-53
2022/09/24 12:14:11;;;;;;;;;;;28.40;38.30;;;;;;5100245;28;20278;-51
2022/09/24 12:16:38;;;;;;;;;;;28.40;39.20;;;;;;5099862;28;20343;-49
2022/09/24 12:19:15;;;;;;;;;;;27.70;37.70;;;;;;5100168;28;20275;-53
2022/09/24 12:21:42;;;;;;;;;;;27.50;35.50;;;;;;5100050;28;19923;-54
2022/09/24 12:24:12;;;;;;;;;;;27.50;38.50;;;;;;5100231;28;19908;-53
2022/09/24 12:26:38;;;;;;;;;;;27.80;43.10;;;;;;5099861;28;19915;-53
2022/09/24 12:34:56;;;;;;;;;;;27.80;42.20;;;;;;5099499;28;20437;-53
2022/09/24 12:37:24;;;;;;;;;;;27.30;39.50;;;;;;5099293;28;20371;-51
2022/09/24 12:39:49;;;;;;;;;;;26.70;39.10;;;;;;5099747;28;19908;-52
2022/09/24 12:42:16;;;;;;;;;;;25.90;40.00;;;;;;5099620;28;20447;-51
2022/09/24 12:44:50;;;;;;;;;;;24.90;40.40;;;;;;5099525;28;19908;-49
2022/09/24 12:47:36;;;;;;;;;;;24.40;38.30;;;;;;5099310;28;19955;-53
2022/09/24 12:50:03;;;;;;;;;;;23.90;40.00;;;;;;5098549;28;19916;-52
2022/09/24 12:52:38;;;;;;;;;;;23.70;40.80;;;;;;5099315;28;20244;-49
2022/09/24 12:55:04;;;;;;;;;;;23.60;40.20;;;;;;5099045;28;19914;-49
2022/09/24 12:57:36;;;;;;;;;;;23.20;41.70;;;;;;5099427;28;20337;-51
2022/09/24 13:00:03;;;;;;;;;;;22.70;42.20;;;;;;5099129;28;19919;-49
2022/09/24 13:02:41;;;;;;;;;;;22.50;43.20;;;;;;5099106;28;19998;-50
2022/09/24 13:05:26;;;;;;;;;;;22.50;43.60;;;;;;5099023;28;19969;-50
2022/09/24 13:07:57;;;;;;;;;;;22.50;42.80;;;;;;5099449;28;19962;-50
2022/09/24 13:10:28;;;;;;;;;;;22.10;44.10;;;;;;5098665;28;20048;-47
2022/09/24 13:12:54;;;;;;;;;;;22.20;44.30;;;;;;5099056;28;19908;-47
2022/09/24 13:15:21;;;;;;;;;;;23.00;45.30;;;;;;5099085;28;20264;-52
2022/09/24 13:17:46;;;;;;;;;;;23.50;44.10;;;;;;5098701;28;19908;-49
2022/09/24 13:20:26;;;;;;;;;;;24.30;46.90;;;;;;5098800;28;19957;-52
2022/09/24 13:22:59;;;;;;;;;;;25.30;47.10;;;;;;5099098;28;19915;-51
2022/09/24 13:25:25;;;;;;;;;;;26.30;46.10;;;;;;5098837;28;19961;-52
2022/09/24 13:27:57;;;;;;;;;;;26.00;41.60;;;;;;5098570;28;19908;-49
2022/09/24 13:30:30;;;;;;;;;;;25.60;40.70;;;;;;5098627;28;19977;-48
2022/09/24 13:32:57;;;;;;;;;;;25.30;42.40;;;;;;5098315;28;19912;-51
2022/09/24 13:35:28;;;;;;;;;;;25.20;42.60;;;;;;5098744;28;19908;-49
2022/09/24 13:38:15;;;;;;;;;;;25.40;42.80;;;;;;5098650;28;19912;-51
2022/09/24 13:40:44;;;;;;;;;;;26.00;43.20;;;;;;5098481;28;19935;-47
2022/09/24 13:43:12;;;;;;;;;;;26.40;42.50;;;;;;5098648;28;19915;-50
2022/09/24 13:45:41;;;;;;;;;;;26.50;43.50;;;;;;5096620;28;19908;-50
2022/09/24 13:48:42;;;;;;;;;;;27.00;39.80;;;;;;5097386;28;20379;-53
2022/09/24 13:51:10;;;;;;;;;;;27.30;42.20;;;;;;4996727;28;19956;-48
2022/09/24 13:53:43;;;;;;;;;;;26.40;40.90;;;;;;5078969;28;19908;-50
2022/09/24 13:56:14;;;;;;;;;;;26.10;40.90;;;;;;5098092;28;20015;-50
2022/09/24 13:58:40;;;;;;;;;;;26.00;41.20;;;;;;5097883;28;19933;-53
2022/09/24 14:01:17;;;;;;;;;;;25.60;40.50;;;;;;5098261;28;19994;-53
2022/09/24 14:03:57;;;;;;;;;;;25.00;42.10;;;;;;5095519;28;19908;-49
2022/09/24 14:06:39;;;;;;;;;;;24.70;41.60;;;;;;5097021;28;19908;-49
2022/09/24 14:09:14;;;;;;;;;;;24.40;41.10;;;;;;5097765;28;19920;-51
2022/09/24 14:11:47;;;;;;;;;;;23.80;40.70;;;;;;5097008;28;19908;-48
2022/09/24 14:14:17;;;;;;;;;;;23.40;41.20;;;;;;5097483;28;19908;-53
2022/09/24 14:16:42;;;;;;;;;;;23.00;41.30;;;;;;5097915;28;19955;-52
2022/09/24 14:19:12;;;;;;;;;;;22.60;41.80;;;;;;5097665;28;19916;-50
2022/09/24 14:21:40;;;;;;;;;;;22.40;42.80;;;;;;5097866;28;19954;-51
2022/09/24 14:24:11;;;;;;;;;;;22.00;44.00;;;;;;5097722;28;19915;-48
2022/09/24 14:26:45;;;;;;;;;;;21.90;45.30;;;;;;5097627;28;19909;-49
2022/09/24 14:29:13;;;;;;;;;;;21.90;45.80;;;;;;5098130;28;19948;-53
2022/09/24 14:31:43;;;;;;;;;;;22.30;45.80;;;;;;5097485;28;19948;-50
2022/09/24 14:34:18;;;;;;;;;;;22.80;45.00;;;;;;5097694;28;19912;-50
2022/09/24 14:36:44;;;;;;;;;;;23.30;45.20;;;;;;5097272;28;19908;-51
2022/09/24 14:39:10;;;;;;;;;;;23.60;44.80;;;;;;5098032;28;19909;-51
2022/09/24 14:41:36;;;;;;;;;;;23.60;43.10;;;;;;5097876;28;19912;-54